首页
METAR-TAF:

METAR-TAF

机场 :

温尼伯詹姆斯·阿姆斯特朗·理查森国际机场

温尼伯, 曼尼托巴, 加拿大

纬度: 49-54N, 经度: 097-14W, 海拔: 239米

当前天气观测

该预报发布于1小时和0分钟前的08:00 UTC
风速6节,风向西南
温度 10°C
湿度 71%
气压 1017 hPa
能見度: 24.1公里
天空无云

METAR: CYWG 190800Z 23006KT 15SM SKC 10/05 A3004 RMK SLP178

时间: 04:00 (09:00 UTC)

预报

该预报发布于3小时和22分钟前的05:38 UTC
预报有效从19日的 06点(UTC)到 20日的 06点(UTC)
风速12节,风向南转西南,有时为22节阵风
能見度: 10公里
少量云层高于7000英尺
成为
从 19日的 07点(UTC)到 19日的 09点(UTC)
风速3节,风向多变
天空无云
从 19日的 0900点(UTC)
风速3节,风向多变
能見度: 10公里
天空无云
几率 30%
从 19日的 09点(UTC)到 19日的 14点(UTC)
能見度: 0.8公里
从 19日的 1400点(UTC)
风速5节,风向东转东北
能見度: 10公里
天空无云
从 19日的 2000点(UTC)
风速12节,风向东南
能見度: 10公里
天空无云

TAF: CYWG 190538Z 1906/2006 21012G22KT P6SM FEW070 BECMG 1907/1909 VRB03KT SKC FM190900 VRB03KT P6SM SKC PROB30 1909/1914 1/2SM FG FM191400 07005KT P6SM SKC FM192000 14012KT P6SM SKC RMK NXT FCST BY 191200Z

超过4000个机场的气象观测和天气预报(METAR&TAF报告)。

可查询的气象台以黄色和红色小点在地图上表示。

将鼠标移到小点上方,可查看气象台名称。

然后点击查看天气观测和预报。

如需切换地图:点击带黑十字的绿色按钮放大地图;点击带横线的绿色按钮缩小地图;或者点击绿色箭头查看邻近地区的地图。


METAR-TAF: